createdAt,value
2019-02-25T00:00:21.604Z,1.91
2019-02-25T00:01:21.721Z,1.94
2019-02-25T00:02:21.598Z,1.92
2019-02-25T00:03:21.556Z,1.85
2019-02-25T00:04:21.646Z,1.94
2019-02-25T00:05:21.530Z,1.85
2019-02-25T00:06:21.665Z,1.89
2019-02-25T00:07:21.570Z,1.89
2019-02-25T00:08:21.682Z,1.94
2019-02-25T00:09:21.666Z,2.11
2019-02-25T00:10:21.459Z,2.10
2019-02-25T00:11:21.610Z,2.11
2019-02-25T00:12:21.495Z,2.11
2019-02-25T00:13:21.610Z,2.07
2019-02-25T00:14:21.439Z,2.13
2019-02-25T00:15:21.428Z,2.07
2019-02-25T00:16:21.632Z,2.11
2019-02-25T00:17:21.434Z,2.17
2019-02-25T00:18:21.536Z,2.10
2019-02-25T00:19:21.365Z,2.10
2019-02-25T00:20:21.535Z,2.06
2019-02-25T00:21:21.372Z,2.11
2019-02-25T00:22:21.530Z,2.13
2019-02-25T00:23:21.325Z,2.04
2019-02-25T00:24:21.493Z,1.95
2019-02-25T00:25:21.323Z,2.00
2019-02-25T00:26:22.516Z,1.95
2019-02-25T00:27:21.329Z,2.07
2019-02-25T00:28:21.416Z,1.94
2019-02-25T00:29:21.294Z,1.97
2019-02-25T00:30:21.405Z,1.89
2019-02-25T00:31:21.263Z,1.80
2019-02-25T00:32:21.271Z,1.78
2019-02-25T00:33:21.234Z,1.81
2019-02-25T00:34:21.336Z,1.77
2019-02-25T00:35:21.225Z,1.78
2019-02-25T00:36:21.348Z,1.70
2019-02-25T00:37:21.310Z,1.71
2019-02-25T00:38:21.193Z,1.73
2019-02-25T00:39:21.162Z,1.77
2019-02-25T00:40:21.272Z,1.74
2019-02-25T00:41:21.168Z,1.76
2019-02-25T00:42:21.334Z,1.84
2019-02-25T00:43:21.158Z,1.88
2019-02-25T00:44:21.112Z,1.95
2019-02-25T00:45:21.332Z,1.95
2019-02-25T00:46:21.107Z,1.97
2019-02-25T00:47:21.282Z,2.06
2019-02-25T00:48:21.082Z,2.07
2019-02-25T00:49:21.241Z,2.06
2019-02-25T00:50:21.043Z,2.02
2019-02-25T00:51:21.250Z,1.94
2019-02-25T00:52:21.027Z,1.97
2019-02-25T00:53:21.930Z,1.95
2019-02-25T00:54:21.018Z,1.95
2019-02-25T00:55:21.158Z,1.94
2019-02-25T00:56:20.985Z,1.92
2019-02-25T00:57:21.170Z,1.94
2019-02-25T00:58:20.990Z,1.94
2019-02-25T00:59:21.097Z,1.97
2019-02-25T01:00:21.918Z,1.89
2019-02-25T01:01:20.933Z,1.91
2019-02-25T01:02:20.941Z,1.97
2019-02-25T01:03:21.068Z,1.94
2019-02-25T01:04:20.925Z,1.85
2019-02-25T01:05:21.039Z,1.80
2019-02-25T01:06:20.926Z,1.81
2019-02-25T01:07:20.866Z,1.80
2019-02-25T01:08:20.885Z,1.92
2019-02-25T01:09:21.069Z,1.95
2019-02-25T01:10:20.830Z,2.04
2019-02-25T01:11:20.975Z,1.95
2019-02-25T01:12:20.813Z,2.11
2019-02-25T01:13:20.831Z,2.04
2019-02-25T01:14:20.815Z,1.97
2019-02-25T01:15:21.925Z,1.95
2019-02-25T01:16:20.786Z,1.94
2019-02-25T01:17:20.895Z,1.91
2019-02-25T01:18:20.788Z,1.94
2019-02-25T01:19:20.746Z,1.88
2019-02-25T01:20:20.747Z,1.88
2019-02-25T01:21:21.846Z,1.85
2019-02-25T01:22:20.715Z,1.88
2019-02-25T01:23:20.896Z,1.84
2019-02-25T01:24:20.695Z,1.80
2019-02-25T01:25:20.700Z,1.87
2019-02-25T01:26:20.889Z,1.77
2019-02-25T01:27:20.675Z,1.77
2019-02-25T01:28:20.828Z,1.81
2019-02-25T01:29:20.658Z,1.71
2019-02-25T01:30:20.778Z,1.77
2019-02-25T01:31:20.633Z,1.85
2019-02-25T01:32:20.803Z,1.91
2019-02-25T01:33:20.610Z,1.97
2019-02-25T01:34:20.787Z,1.97
2019-02-25T01:35:20.600Z,2.02
2019-02-25T01:36:20.579Z,2.07
2019-02-25T01:37:20.571Z,2.18
2019-02-25T01:38:20.744Z,2.13
2019-02-25T01:39:20.539Z,2.24
2019-02-25T01:40:20.717Z,2.18
2019-02-25T01:41:20.521Z,2.15
2019-02-25T01:42:20.518Z,2.14
2019-02-25T01:43:20.500Z,2.18
2019-02-25T01:44:20.688Z,2.10
2019-02-25T01:45:20.979Z,2.06
2019-02-25T01:46:20.580Z,2.08
2019-02-25T01:47:20.474Z,2.04
2019-02-25T01:48:20.450Z,1.95
2019-02-25T01:49:20.622Z,2.00
2019-02-25T01:50:20.471Z,2.00
2019-02-25T01:51:22.184Z,1.92
2019-02-25T01:52:20.468Z,1.92
2019-02-25T01:53:20.545Z,1.94
2019-02-25T01:54:20.382Z,1.94
2019-02-25T01:55:20.611Z,1.97
2019-02-25T01:56:20.390Z,1.91
2019-02-25T01:57:28.041Z,1.81
2019-02-25T01:58:20.356Z,1.92
2019-02-25T01:59:22.520Z,1.81
2019-02-25T02:00:20.347Z,1.84
2019-02-25T02:01:20.534Z,1.85
2019-02-25T02:02:20.323Z,1.88
2019-02-25T02:03:20.398Z,1.87
2019-02-25T02:04:20.289Z,1.81
2019-02-25T02:05:20.300Z,1.85
2019-02-25T02:06:20.295Z,1.87
2019-02-25T02:07:21.340Z,1.78
2019-02-25T02:08:20.243Z,1.74
2019-02-25T02:09:20.358Z,1.70
2019-02-25T02:10:20.241Z,1.71
2019-02-25T02:11:20.195Z,1.73
2019-02-25T02:12:20.227Z,1.78
2019-02-25T02:13:22.319Z,1.71
2019-02-25T02:14:20.187Z,1.70
2019-02-25T02:15:20.285Z,1.70
2019-02-25T02:16:20.154Z,1.63
2019-02-25T02:17:20.182Z,1.59
2019-02-25T02:18:20.282Z,1.55
2019-02-25T02:19:20.134Z,1.56
2019-02-25T02:20:20.330Z,1.38
2019-02-25T02:21:20.298Z,1.44
2019-02-25T02:22:20.272Z,1.37
2019-02-25T02:23:20.081Z,1.44
2019-02-25T02:24:20.234Z,1.48
2019-02-25T02:25:20.068Z,1.44
2019-02-25T02:26:21.192Z,1.40
2019-02-25T02:27:20.090Z,1.52
2019-02-25T02:28:20.163Z,1.49
2019-02-25T02:29:20.014Z,1.53
2019-02-25T02:30:20.160Z,1.66
2019-02-25T02:31:20.009Z,1.73
2019-02-25T02:32:21.127Z,1.81
2019-02-25T02:33:20.041Z,1.76
2019-02-25T02:34:19.975Z,1.78
2019-02-25T02:35:19.968Z,1.81
2019-02-25T02:36:20.112Z,1.81
2019-02-25T02:37:19.944Z,1.81
2019-02-25T02:38:20.018Z,1.81
2019-02-25T02:39:19.944Z,1.88
2019-02-25T02:40:19.910Z,1.88
2019-02-25T02:41:20.030Z,1.89
2019-02-25T02:42:20.262Z,1.94
2019-02-25T02:43:20.040Z,1.88
2019-02-25T02:44:19.898Z,1.85
2019-02-25T02:45:20.538Z,1.84
2019-02-25T02:46:19.837Z,1.84
2019-02-25T02:47:21.241Z,1.84
2019-02-25T02:48:20.105Z,1.80
2019-02-25T02:49:19.957Z,1.77
2019-02-25T02:50:19.785Z,1.77
2019-02-25T02:51:19.953Z,1.77
2019-02-25T02:52:19.764Z,1.78
2019-02-25T02:53:19.838Z,1.84
2019-02-25T02:54:19.776Z,1.77
2019-02-25T02:55:19.856Z,1.77
2019-02-25T02:56:19.769Z,1.71
2019-02-25T02:57:19.782Z,1.74
2019-02-25T02:58:19.731Z,1.70
2019-02-25T02:59:19.859Z,1.62
2019-02-25T03:00:19.730Z,1.59
2019-02-25T03:01:19.789Z,1.53
2019-02-25T03:02:19.693Z,1.52
2019-02-25T03:03:19.644Z,1.56
2019-02-25T03:04:19.647Z,1.52
2019-02-25T03:05:19.760Z,1.42
2019-02-25T03:06:19.640Z,1.37
2019-02-25T03:07:19.679Z,1.50
2019-02-25T03:08:19.620Z,1.41
2019-02-25T03:09:19.617Z,1.41
2019-02-25T03:10:19.601Z,1.42
2019-02-25T03:11:19.659Z,1.53
2019-02-25T03:12:19.619Z,1.52
2019-02-25T03:13:19.687Z,1.62
2019-02-25T03:14:19.554Z,1.60
2019-02-25T03:15:19.594Z,1.67
2019-02-25T03:16:19.582Z,1.56
2019-02-25T03:17:19.524Z,1.62
2019-02-25T03:18:19.594Z,1.62
2019-02-25T03:19:19.489Z,1.59
2019-02-25T03:20:19.571Z,1.74
2019-02-25T03:21:19.476Z,1.60
2019-02-25T03:22:19.540Z,1.60
2019-02-25T03:23:19.470Z,1.63
2019-02-25T03:24:19.550Z,1.58
2019-02-25T03:25:19.470Z,1.45
2019-02-25T03:26:20.580Z,1.49
2019-02-25T03:27:19.420Z,1.41
2019-02-25T03:28:19.475Z,1.38
2019-02-25T03:29:19.402Z,1.41
2019-02-25T03:30:19.450Z,1.38
2019-02-25T03:31:19.428Z,1.44
2019-02-25T03:32:19.371Z,1.37
2019-02-25T03:33:19.368Z,1.42
2019-02-25T03:34:19.400Z,1.44
2019-02-25T03:35:19.359Z,1.44
2019-02-25T03:36:20.331Z,1.45
2019-02-25T03:37:19.315Z,1.34
2019-02-25T03:38:19.310Z,1.40
2019-02-25T03:39:19.326Z,1.40
2019-02-25T03:40:20.519Z,1.38
2019-02-25T03:41:19.263Z,1.34
2019-02-25T03:42:19.481Z,1.42
2019-02-25T03:43:19.233Z,1.19
2019-02-25T03:44:19.245Z,1.22
2019-02-25T03:45:19.259Z,1.24
2019-02-25T03:46:19.392Z,1.22
2019-02-25T03:47:19.210Z,1.06
2019-02-25T03:48:19.388Z,1.17
2019-02-25T03:49:19.195Z,1.04
2019-02-25T03:50:19.209Z,1.01
2019-02-25T03:51:19.328Z,1.08
2019-02-25T03:52:19.161Z,1.05
2019-02-25T03:53:19.360Z,1.04
2019-02-25T03:54:19.137Z,0.98
2019-02-25T03:55:19.335Z,0.94
2019-02-25T03:56:19.130Z,0.99
2019-02-25T03:57:19.256Z,0.94
2019-02-25T03:58:19.098Z,0.96
2019-02-25T03:59:19.274Z,0.95
2019-02-25T04:00:19.092Z,1.02
2019-02-25T04:01:19.182Z,0.98
2019-02-25T04:02:19.056Z,1.01
2019-02-25T04:03:19.202Z,1.05
2019-02-25T04:04:19.041Z,1.05
2019-02-25T04:05:20.204Z,0.96
2019-02-25T04:06:19.032Z,1.01
2019-02-25T04:07:18.996Z,0.98
2019-02-25T04:08:18.992Z,1.04
2019-02-25T04:09:19.138Z,1.08
2019-02-25T04:10:19.013Z,1.12
2019-02-25T04:11:19.154Z,1.05
2019-02-25T04:12:18.962Z,1.05
2019-02-25T04:13:18.924Z,1.06
2019-02-25T04:14:18.931Z,1.06
2019-02-25T04:15:19.044Z,1.05
2019-02-25T04:16:18.932Z,0.96
2019-02-25T04:17:19.069Z,0.95
2019-02-25T04:18:18.874Z,0.94
2019-02-25T04:19:18.883Z,0.99
2019-02-25T04:20:20.111Z,0.98
2019-02-25T04:21:18.866Z,1.04
2019-02-25T04:22:19.002Z,1.01
2019-02-25T04:23:18.842Z,0.96
2019-02-25T04:24:19.031Z,1.10
2019-02-25T04:25:18.852Z,1.08
2019-02-25T04:26:19.958Z,0.96
2019-02-25T04:27:18.796Z,1.02
2019-02-25T04:28:25.599Z,0.98
2019-02-25T04:29:18.789Z,1.02
2019-02-25T04:30:18.803Z,1.04
2019-02-25T04:31:18.766Z,0.95
2019-02-25T04:32:18.867Z,0.92
2019-02-25T04:33:18.736Z,0.94
2019-02-25T04:34:18.881Z,0.87
2019-02-25T04:35:18.746Z,0.84
2019-02-25T04:36:18.731Z,0.87
2019-02-25T04:37:18.673Z,0.91
2019-02-25T04:38:18.806Z,0.86
2019-02-25T04:39:18.659Z,0.87
2019-02-25T04:40:18.877Z,0.84
2019-02-25T04:41:18.694Z,0.77
2019-02-25T04:42:18.641Z,0.70
2019-02-25T04:43:18.776Z,0.73
2019-02-25T04:44:18.621Z,0.74
2019-02-25T04:45:19.970Z,0.86
2019-02-25T04:46:18.617Z,0.96
2019-02-25T04:47:18.774Z,0.94
2019-02-25T04:48:18.580Z,0.94
2019-02-25T04:49:18.787Z,0.91
2019-02-25T04:50:18.557Z,0.87
2019-02-25T04:51:18.667Z,0.91
2019-02-25T04:52:18.537Z,0.91
2019-02-25T04:53:18.562Z,0.95
2019-02-25T04:54:18.515Z,0.95
2019-02-25T04:55:18.614Z,0.98
2019-02-25T04:56:18.552Z,0.98
2019-02-25T04:57:18.540Z,1.12
2019-02-25T04:58:18.463Z,1.08
2019-02-25T04:59:18.468Z,1.20
2019-02-25T05:00:18.640Z,1.17
2019-02-25T05:01:18.470Z,1.12
2019-02-25T05:02:18.566Z,1.02
2019-02-25T05:03:18.441Z,1.06
2019-02-25T05:04:18.569Z,1.17
2019-02-25T05:05:18.401Z,1.13
2019-02-25T05:06:18.564Z,1.02
2019-02-25T05:07:18.379Z,0.94
2019-02-25T05:08:18.389Z,1.06
2019-02-25T05:09:18.383Z,1.10
2019-02-25T05:10:18.359Z,1.08
2019-02-25T05:11:18.886Z,1.08
2019-02-25T05:12:18.528Z,1.06
2019-02-25T05:13:18.324Z,1.14
2019-02-25T05:14:19.449Z,1.04
2019-02-25T05:15:18.276Z,1.12
2019-02-25T05:16:18.310Z,1.05
2019-02-25T05:17:18.296Z,1.01
2019-02-25T05:18:19.392Z,1.17
2019-02-25T05:19:18.251Z,1.20
2019-02-25T05:20:18.370Z,1.12
2019-02-25T05:21:18.257Z,1.20
2019-02-25T05:22:18.216Z,1.13
2019-02-25T05:23:18.384Z,1.17
2019-02-25T05:24:18.191Z,1.05
2019-02-25T05:25:18.308Z,1.19
2019-02-25T05:26:18.251Z,1.05
2019-02-25T05:27:18.308Z,1.13
2019-02-25T05:28:18.166Z,1.01
2019-02-25T05:29:18.319Z,0.99
2019-02-25T05:30:18.158Z,1.10
2019-02-25T05:31:18.299Z,1.04
2019-02-25T05:32:18.126Z,1.02
2019-02-25T05:33:18.100Z,0.95
2019-02-25T05:34:18.092Z,0.99
2019-02-25T05:35:18.293Z,1.04
2019-02-25T05:36:18.128Z,1.05
2019-02-25T05:37:19.075Z,0.99
2019-02-25T05:38:18.060Z,0.96
2019-02-25T05:39:18.056Z,0.99
2019-02-25T05:40:18.049Z,0.98
2019-02-25T05:41:18.189Z,1.06
2019-02-25T05:42:18.009Z,0.96
2019-02-25T05:43:18.145Z,0.96
2019-02-25T05:44:17.998Z,1.05
2019-02-25T05:45:17.993Z,0.91
2019-02-25T05:46:18.222Z,1.02
2019-02-25T05:47:18.054Z,0.99
2019-02-25T05:48:18.171Z,1.14
2019-02-25T05:49:17.932Z,1.04
2019-02-25T05:50:18.113Z,1.06
2019-02-25T05:51:17.980Z,1.05
2019-02-25T05:52:18.093Z,1.13
2019-02-25T05:53:17.894Z,1.20
2019-02-25T05:54:18.093Z,1.17
2019-02-25T05:55:17.890Z,1.13
2019-02-25T05:56:17.974Z,1.17
2019-02-25T05:57:17.895Z,1.26
2019-02-25T05:58:18.027Z,1.26
2019-02-25T05:59:17.846Z,1.16
2019-02-25T06:00:18.030Z,1.31
2019-02-25T06:01:17.845Z,1.32
2019-02-25T06:02:17.832Z,1.31
2019-02-25T06:03:17.946Z,1.30
2019-02-25T06:04:17.789Z,1.26
2019-02-25T06:05:19.006Z,1.31
2019-02-25T06:06:17.821Z,1.22
2019-02-25T06:07:17.863Z,1.22
2019-02-25T06:08:17.737Z,1.20
2019-02-25T06:09:17.886Z,1.13
2019-02-25T06:10:17.717Z,1.04
2019-02-25T06:11:18.830Z,1.04
2019-02-25T06:12:17.726Z,0.99
2019-02-25T06:13:17.692Z,1.02
2019-02-25T06:14:17.689Z,1.01
2019-02-25T06:15:17.835Z,1.05
2019-02-25T06:16:17.666Z,0.96
2019-02-25T06:17:17.914Z,1.02
2019-02-25T06:18:17.645Z,0.98
2019-02-25T06:19:17.643Z,0.96
2019-02-25T06:20:17.638Z,0.95
2019-02-25T06:21:17.769Z,0.98
2019-02-25T06:22:17.647Z,0.91
2019-02-25T06:23:17.773Z,0.86
2019-02-25T06:24:17.598Z,0.88
2019-02-25T06:25:17.592Z,0.99
2019-02-25T06:26:17.572Z,0.98
2019-02-25T06:27:17.770Z,0.98
2019-02-25T06:28:17.553Z,0.96
2019-02-25T06:29:17.713Z,0.96
2019-02-25T06:30:17.529Z,1.02
2019-02-25T06:31:17.513Z,0.95
2019-02-25T06:32:17.698Z,0.96
2019-02-25T06:33:17.475Z,0.99
2019-02-25T06:34:17.659Z,1.05
2019-02-25T06:35:17.527Z,0.96
2019-02-25T06:36:17.449Z,1.02
2019-02-25T06:37:17.500Z,0.95
2019-02-25T06:38:17.564Z,0.95
2019-02-25T06:39:17.426Z,0.86
2019-02-25T06:40:17.576Z,0.81
2019-02-25T06:41:17.401Z,0.84
2019-02-25T06:42:17.418Z,0.87
2019-02-25T06:43:17.397Z,0.76
2019-02-25T06:44:17.512Z,0.74
2019-02-25T06:45:17.362Z,0.78
2019-02-25T06:46:17.560Z,0.74
2019-02-25T06:47:17.371Z,0.77
2019-02-25T06:48:17.345Z,0.69
2019-02-25T06:49:17.519Z,0.80
2019-02-25T06:50:17.332Z,0.78
2019-02-25T06:51:17.452Z,0.81
2019-02-25T06:52:17.437Z,0.94
2019-02-25T06:53:17.463Z,0.95
2019-02-25T06:54:17.287Z,1.01
2019-02-25T06:55:17.369Z,1.04
2019-02-25T06:56:17.285Z,1.04
2019-02-25T06:57:17.478Z,1.12
2019-02-25T06:58:17.244Z,1.05
2019-02-25T06:59:17.244Z,1.16
2019-02-25T07:00:17.230Z,1.16
2019-02-25T07:01:17.356Z,1.05
2019-02-25T07:02:18.063Z,1.04
2019-02-25T07:03:17.336Z,1.26
2019-02-25T07:04:17.166Z,1.45
2019-02-25T07:05:17.173Z,1.67
2019-02-25T07:06:18.994Z,2.08
2019-02-25T07:07:17.304Z,2.20
2019-02-25T07:08:18.343Z,2.44
2019-02-25T07:09:17.253Z,2.62
2019-02-25T07:10:17.103Z,2.75
2019-02-25T07:11:17.513Z,2.87
2019-02-25T07:12:17.871Z,2.90
2019-02-25T07:13:17.069Z,2.92
2019-02-25T07:14:18.427Z,2.97
2019-02-25T07:15:17.043Z,2.95
2019-02-25T07:16:17.040Z,2.82
2019-02-25T07:17:17.066Z,2.75
2019-02-25T07:18:17.213Z,2.71
2019-02-25T07:19:17.007Z,2.61
2019-02-25T07:20:18.517Z,2.57
2019-02-25T07:21:16.993Z,2.47
2019-02-25T07:22:18.363Z,2.53
2019-02-25T07:23:17.145Z,2.64
2019-02-25T07:24:16.963Z,2.82
2019-02-25T07:25:17.071Z,2.93
2019-02-25T07:26:16.962Z,3.08
2019-02-25T07:27:20.285Z,3.34
2019-02-25T07:28:17.201Z,3.48
2019-02-25T07:29:17.205Z,3.53
2019-02-25T07:30:16.933Z,3.68
2019-02-25T07:31:16.992Z,3.81
2019-02-25T07:32:16.930Z,3.84
2019-02-25T07:33:16.867Z,3.95
2019-02-25T07:34:16.874Z,3.99
2019-02-25T07:35:17.022Z,4.13
2019-02-25T07:36:16.836Z,4.22
2019-02-25T07:37:18.043Z,4.22
2019-02-25T07:38:16.823Z,4.31
2019-02-25T07:39:16.807Z,4.38
2019-02-25T07:40:18.997Z,4.56
2019-02-25T07:41:16.818Z,4.75
2019-02-25T07:42:16.955Z,4.84
2019-02-25T07:43:16.768Z,4.94
2019-02-25T07:44:17.930Z,5.11
2019-02-25T07:45:16.739Z,5.28
2019-02-25T07:46:17.833Z,5.35
2019-02-25T07:47:16.754Z,5.44
2019-02-25T07:48:16.816Z,5.57
2019-02-25T07:49:16.710Z,5.68
2019-02-25T07:50:16.824Z,5.61
2019-02-25T07:51:16.705Z,5.64
2019-02-25T07:52:16.880Z,5.75
2019-02-25T07:53:16.656Z,5.64
2019-02-25T07:54:16.749Z,5.61
2019-02-25T07:55:16.690Z,5.64
2019-02-25T07:56:16.621Z,5.66
2019-02-25T07:57:16.645Z,5.64
2019-02-25T07:58:17.854Z,5.66
2019-02-25T07:59:16.586Z,5.83
2019-02-25T08:00:16.686Z,5.93
2019-02-25T08:01:16.555Z,6.07
2019-02-25T08:02:16.565Z,6.30
2019-02-25T08:03:16.600Z,6.33
2019-02-25T08:04:16.720Z,6.57
2019-02-25T08:05:16.533Z,6.57
2019-02-25T08:06:16.611Z,6.67
2019-02-25T08:07:16.499Z,6.70
2019-02-25T08:08:16.592Z,6.79
2019-02-25T08:09:16.648Z,6.82
2019-02-25T08:10:16.503Z,6.95
2019-02-25T08:11:16.657Z,6.93
2019-02-25T08:12:16.450Z,6.97
2019-02-25T08:13:16.694Z,6.85
2019-02-25T08:14:16.439Z,6.87
2019-02-25T08:15:16.826Z,6.82
2019-02-25T08:16:16.457Z,6.63
2019-02-25T08:17:16.513Z,6.59
2019-02-25T08:18:16.433Z,6.59
2019-02-25T08:19:16.499Z,6.59
2019-02-25T08:20:16.378Z,6.49
2019-02-25T08:21:16.523Z,6.59
2019-02-25T08:22:16.331Z,6.52
2019-02-25T08:23:16.508Z,6.49
2019-02-25T08:24:16.365Z,6.51
2019-02-25T08:25:16.459Z,6.48
2019-02-25T08:26:16.325Z,6.35
2019-02-25T08:27:18.395Z,6.33
2019-02-25T08:28:25.887Z,6.22
2019-02-25T08:29:17.855Z,6.28
2019-02-25T08:30:17.854Z,6.28
2019-02-25T08:31:17.872Z,6.31
2019-02-25T08:32:17.855Z,6.33
2019-02-25T08:33:17.854Z,6.52
2019-02-25T08:34:18.873Z,6.64
2019-02-25T08:35:17.854Z,6.78
2019-02-25T08:36:17.856Z,6.95
2019-02-25T08:37:16.153Z,7.13
2019-02-25T08:38:17.911Z,7.28
2019-02-25T08:39:17.879Z,7.25
2019-02-25T08:40:17.853Z,7.43
2019-02-25T08:41:17.873Z,7.51
2019-02-25T08:42:17.853Z,7.54
2019-02-25T08:43:18.870Z,7.56
2019-02-25T08:44:17.869Z,7.70
2019-02-25T08:45:17.855Z,7.70
2019-02-25T08:46:17.857Z,7.72
2019-02-25T08:47:17.895Z,7.76
2019-02-25T08:48:17.875Z,7.80
2019-02-25T08:49:17.868Z,7.93
2019-02-25T08:50:17.862Z,8.00
2019-02-25T08:51:17.892Z,7.94
2019-02-25T08:52:17.857Z,7.95
2019-02-25T08:53:17.867Z,7.91
2019-02-25T08:54:18.863Z,7.80
2019-02-25T08:55:17.927Z,7.80
2019-02-25T08:56:17.853Z,7.77
2019-02-25T08:57:18.870Z,7.75
2019-02-25T08:58:17.866Z,7.75
2019-02-25T08:59:17.866Z,7.77
2019-02-25T09:00:17.853Z,7.80
2019-02-25T09:01:17.896Z,8.00
2019-02-25T09:02:17.853Z,8.24
2019-02-25T09:03:17.853Z,8.49
2019-02-25T09:04:17.867Z,8.67
2019-02-25T09:05:17.365Z,8.76
2019-02-25T09:06:15.850Z,8.79
2019-02-25T09:07:17.389Z,8.89
2019-02-25T09:08:17.355Z,9.10
2019-02-25T09:09:17.381Z,9.06
2019-02-25T09:10:17.353Z,9.16
2019-02-25T09:11:16.795Z,9.28
2019-02-25T09:12:17.373Z,9.23
2019-02-25T09:13:17.355Z,9.31
2019-02-25T09:14:17.370Z,9.32
2019-02-25T09:15:17.417Z,9.44
2019-02-25T09:16:17.358Z,9.40
2019-02-25T09:17:17.356Z,9.37
2019-02-25T09:18:17.369Z,9.41
2019-02-25T09:19:17.364Z,9.46
2019-02-25T09:20:17.352Z,9.51
2019-02-25T09:21:17.355Z,9.54
2019-02-25T09:22:17.356Z,9.55
2019-02-25T09:23:17.356Z,9.59
2019-02-25T09:24:17.381Z,9.50
2019-02-25T09:25:17.352Z,9.50
2019-02-25T09:26:17.355Z,9.56
2019-02-25T09:27:17.355Z,9.61
2019-02-25T09:28:17.353Z,9.59
2019-02-25T09:29:15.637Z,9.66
2019-02-25T09:30:17.379Z,9.65
2019-02-25T09:31:17.355Z,9.65
2019-02-25T09:32:19.030Z,9.69
2019-02-25T09:33:18.357Z,9.62
2019-02-25T09:34:17.370Z,9.50
2019-02-25T09:35:17.353Z,9.66
2019-02-25T09:36:17.369Z,9.62
2019-02-25T09:37:17.354Z,9.82
2019-02-25T09:38:17.357Z,9.83
2019-02-25T09:39:17.365Z,9.91
2019-02-25T09:40:17.369Z,9.92
2019-02-25T09:41:17.352Z,10.02
2019-02-25T09:42:17.380Z,10.02
2019-02-25T09:43:17.368Z,10.05
2019-02-25T09:44:17.360Z,10.12
2019-02-25T09:45:17.371Z,10.10
2019-02-25T09:46:17.368Z,10.17
2019-02-25T09:47:17.355Z,10.13
2019-02-25T09:48:17.353Z,10.25
2019-02-25T09:49:17.527Z,10.22
2019-02-25T09:50:17.359Z,10.30
2019-02-25T09:51:17.384Z,10.25
2019-02-25T09:52:16.394Z,10.30
2019-02-25T09:53:16.859Z,10.22
2019-02-25T09:54:16.867Z,10.34
2019-02-25T09:55:16.854Z,10.30
2019-02-25T09:56:16.869Z,10.48
2019-02-25T09:57:16.923Z,10.46
2019-02-25T09:58:15.871Z,10.59
2019-02-25T09:59:16.858Z,10.63
2019-02-25T10:00:16.873Z,10.69
2019-02-25T10:01:16.859Z,10.74
2019-02-25T10:02:16.889Z,10.79
2019-02-25T10:03:16.856Z,10.78
2019-02-25T10:04:16.853Z,10.87
2019-02-25T10:05:16.865Z,10.87
2019-02-25T10:06:16.855Z,10.96
2019-02-25T10:07:16.855Z,10.99
2019-02-25T10:08:16.865Z,11.02
2019-02-25T10:09:16.862Z,10.97
2019-02-25T10:10:16.867Z,11.11
2019-02-25T10:11:16.855Z,11.19
2019-02-25T10:12:16.862Z,11.22
2019-02-25T10:13:16.874Z,11.29
2019-02-25T10:14:16.853Z,11.36
2019-02-25T10:15:16.921Z,11.43
2019-02-25T10:16:16.857Z,11.44
2019-02-25T10:17:23.552Z,11.43
2019-02-25T10:18:17.856Z,11.57
2019-02-25T10:19:16.868Z,11.54
2019-02-25T10:20:17.859Z,11.63
2019-02-25T10:21:16.859Z,11.63
2019-02-25T10:22:16.853Z,11.68
2019-02-25T10:23:16.856Z,11.73
2019-02-25T10:24:16.866Z,11.73
2019-02-25T10:25:16.872Z,11.80
2019-02-25T10:26:16.856Z,11.90
2019-02-25T10:27:16.856Z,11.86
2019-02-25T10:28:16.856Z,11.91
2019-02-25T10:29:16.856Z,11.95
2019-02-25T10:30:16.890Z,11.95
2019-02-25T10:31:17.506Z,12.07
2019-02-25T10:32:16.856Z,12.04
2019-02-25T10:33:14.929Z,12.13
2019-02-25T10:34:17.990Z,12.18
2019-02-25T10:35:16.857Z,12.20
2019-02-25T10:36:16.874Z,12.10
2019-02-25T10:37:17.126Z,12.22
2019-02-25T10:38:16.858Z,12.17
2019-02-25T10:39:17.730Z,12.24
2019-02-25T10:40:19.052Z,12.27
2019-02-25T10:41:19.694Z,12.24
2019-02-25T10:42:16.443Z,12.25
2019-02-25T10:43:16.398Z,12.35
2019-02-25T10:44:16.361Z,12.39
2019-02-25T10:45:16.355Z,12.45
2019-02-25T10:46:17.698Z,12.46
2019-02-25T10:47:18.983Z,12.47
2019-02-25T10:48:17.700Z,12.60
2019-02-25T10:49:16.354Z,12.64
2019-02-25T10:50:14.749Z,12.62
2019-02-25T10:51:16.372Z,12.62
2019-02-25T10:52:17.259Z,12.60
2019-02-25T10:53:18.224Z,12.65
2019-02-25T10:54:16.941Z,12.73
2019-02-25T10:55:16.359Z,12.73
2019-02-25T10:56:17.334Z,12.76
2019-02-25T10:57:16.367Z,12.73
2019-02-25T10:58:16.368Z,12.73
2019-02-25T10:59:16.357Z,12.64
2019-02-25T11:00:16.390Z,12.75
2019-02-25T11:01:19.662Z,12.78
2019-02-25T11:02:17.501Z,12.90
2019-02-25T11:03:17.834Z,13.03
2019-02-25T11:04:17.517Z,13.09
2019-02-25T11:05:16.385Z,13.22
2019-02-25T11:06:16.369Z,13.16
2019-02-25T11:07:15.798Z,13.19
2019-02-25T11:08:16.360Z,13.20
2019-02-25T11:09:18.029Z,13.31
2019-02-25T11:10:18.186Z,13.39
2019-02-25T11:11:18.337Z,13.39
2019-02-25T11:12:16.358Z,13.38
2019-02-25T11:13:16.358Z,13.39
2019-02-25T11:14:16.366Z,13.38
2019-02-25T11:15:16.358Z,13.38
2019-02-25T11:16:18.177Z,13.25
2019-02-25T11:17:18.172Z,13.28
2019-02-25T11:18:19.231Z,13.30
2019-02-25T11:19:16.357Z,13.37
2019-02-25T11:20:16.386Z,13.23
2019-02-25T11:21:16.372Z,13.23
2019-02-25T11:22:16.518Z,13.20
2019-02-25T11:23:17.649Z,13.23
2019-02-25T11:24:17.009Z,13.22
2019-02-25T11:25:16.448Z,13.22
2019-02-25T11:26:15.874Z,13.18
2019-02-25T11:27:15.860Z,13.18
2019-02-25T11:28:25.453Z,13.23
2019-02-25T11:29:16.856Z,13.28
2019-02-25T11:30:16.677Z,13.41
2019-02-25T11:31:18.164Z,13.72
2019-02-25T11:32:18.907Z,14.10
2019-02-25T11:33:15.857Z,14.84
2019-02-25T11:34:15.883Z,15.84
2019-02-25T11:35:15.860Z,16.89
2019-02-25T11:36:17.761Z,17.86
2019-02-25T11:37:16.822Z,18.73
2019-02-25T11:38:15.860Z,19.36
2019-02-25T11:39:15.858Z,19.99
2019-02-25T11:40:15.873Z,20.40
2019-02-25T11:41:15.868Z,20.90
2019-02-25T11:42:19.775Z,21.17
2019-02-25T11:43:16.696Z,21.64
2019-02-25T11:44:17.117Z,22.13
2019-02-25T11:45:15.866Z,22.36
2019-02-25T11:46:15.916Z,22.72
2019-02-25T11:47:15.861Z,22.96
2019-02-25T11:48:15.871Z,22.93
2019-02-25T11:49:15.865Z,23.12
2019-02-25T11:50:15.864Z,23.25
2019-02-25T11:51:15.871Z,23.27
2019-02-25T11:52:15.901Z,23.40
2019-02-25T11:53:14.074Z,23.51
2019-02-25T11:54:15.864Z,23.54
2019-02-25T11:55:15.876Z,23.78
2019-02-25T11:56:15.874Z,23.95
2019-02-25T11:57:15.866Z,23.92
2019-02-25T11:58:15.900Z,23.93
2019-02-25T11:59:15.865Z,23.83
2019-02-25T12:00:15.870Z,23.63
2019-02-25T12:01:15.877Z,23.47
2019-02-25T12:02:24.849Z,23.54
2019-02-25T12:03:16.861Z,23.68
2019-02-25T12:04:15.881Z,23.84
2019-02-25T12:05:15.863Z,23.86
2019-02-25T12:06:15.890Z,23.87
2019-02-25T12:07:15.866Z,23.86
2019-02-25T12:08:15.867Z,24.02
2019-02-25T12:09:15.875Z,24.11
2019-02-25T12:10:15.892Z,24.26
2019-02-25T12:11:15.878Z,24.65
2019-02-25T12:12:15.365Z,25.01
2019-02-25T12:13:15.374Z,25.41
2019-02-25T12:14:15.370Z,25.40
2019-02-25T12:15:15.368Z,25.47
2019-02-25T12:16:13.900Z,25.55
2019-02-25T12:17:15.372Z,25.58
2019-02-25T12:18:15.368Z,25.72
2019-02-25T12:19:17.923Z,25.47
2019-02-25T12:20:15.377Z,25.32
2019-02-25T12:21:15.377Z,25.23
2019-02-25T12:22:13.778Z,25.03
2019-02-25T12:23:15.389Z,24.99
2019-02-25T12:24:15.372Z,24.70
2019-02-25T12:25:15.367Z,24.73
2019-02-25T12:26:15.375Z,25.01
2019-02-25T12:27:15.371Z,25.35
2019-02-25T12:28:15.374Z,25.47
2019-02-25T12:29:15.383Z,25.68
2019-02-25T12:30:15.369Z,25.83
2019-02-25T12:31:15.382Z,25.73
2019-02-25T12:32:15.366Z,25.81
2019-02-25T12:33:15.453Z,26.03
2019-02-25T12:34:15.376Z,26.21
2019-02-25T12:35:15.368Z,26.23
2019-02-25T12:36:15.610Z,26.40
2019-02-25T12:37:15.364Z,26.53
2019-02-25T12:38:15.368Z,26.65
2019-02-25T12:39:15.378Z,26.63
2019-02-25T12:40:15.368Z,26.29
2019-02-25T12:41:15.377Z,25.99
2019-02-25T12:42:15.366Z,25.75
2019-02-25T12:43:15.367Z,25.75
2019-02-25T12:44:15.385Z,25.87
2019-02-25T12:45:13.514Z,25.98
2019-02-25T12:46:15.384Z,26.23
2019-02-25T12:47:15.366Z,26.31
2019-02-25T12:48:16.376Z,26.29
2019-02-25T12:49:15.369Z,26.40
2019-02-25T12:50:15.401Z,26.56
2019-02-25T12:51:15.387Z,26.68
2019-02-25T12:52:15.367Z,26.97
2019-02-25T12:53:15.373Z,27.12
2019-02-25T12:54:15.371Z,27.45
2019-02-25T12:55:15.370Z,27.63
2019-02-25T12:56:15.396Z,27.80
2019-02-25T12:57:15.371Z,27.90
2019-02-25T12:58:14.871Z,27.85
2019-02-25T12:59:14.868Z,28.07
2019-02-25T13:00:14.871Z,27.93
2019-02-25T13:01:14.884Z,27.77
2019-02-25T13:02:14.883Z,27.93
2019-02-25T13:03:14.869Z,28.07
2019-02-25T13:04:14.872Z,28.04
2019-02-25T13:05:14.876Z,27.45
2019-02-25T13:06:14.891Z,26.55
2019-02-25T13:07:14.873Z,25.72
2019-02-25T13:08:14.943Z,25.29
2019-02-25T13:09:14.884Z,24.95
2019-02-25T13:10:14.874Z,24.96
2019-02-25T13:11:14.888Z,25.18